createdAt,value
2024-05-09T00:03:46.391Z,2.10
2024-05-09T00:18:48.282Z,2.10
2024-05-09T00:33:50.085Z,1.90
2024-05-09T00:48:51.854Z,2.03
2024-05-09T01:03:53.773Z,2.37
2024-05-09T01:18:55.710Z,2.10
2024-05-09T01:33:57.544Z,1.97
2024-05-09T01:48:59.384Z,2.10
2024-05-09T02:04:01.361Z,1.90
2024-05-09T02:19:03.416Z,2.17
2024-05-09T02:34:05.311Z,2.13
2024-05-09T02:49:07.521Z,2.23
2024-05-09T03:04:09.399Z,2.03
2024-05-09T03:19:11.176Z,2.00
2024-05-09T03:34:12.880Z,2.00
2024-05-09T03:49:15.700Z,2.00
2024-05-09T04:04:17.341Z,1.90
2024-05-09T04:19:19.223Z,1.80
2024-05-09T04:34:21.021Z,1.60
2024-05-09T04:49:22.923Z,1.87
2024-05-09T05:04:24.633Z,1.67
2024-05-09T05:19:26.454Z,1.60
2024-05-09T05:34:28.168Z,2.10
2024-05-09T05:49:29.920Z,4.73
2024-05-09T06:04:31.674Z,2.67
2024-05-09T06:19:33.554Z,3.70
2024-05-09T06:34:35.384Z,2.80
2024-05-09T06:49:37.109Z,3.57
2024-05-09T07:04:38.808Z,6.90
2024-05-09T07:19:40.511Z,4.67
2024-05-09T07:34:42.348Z,3.60
2024-05-09T07:51:32.050Z,6.50
2024-05-09T08:05:05.853Z,6.10
2024-05-09T08:20:08.561Z,7.53
2024-05-09T08:35:10.221Z,7.07
2024-05-09T08:50:24.055Z,6.70
2024-05-09T09:05:33.578Z,6.13
2024-05-09T09:20:36.858Z,4.23
2024-05-09T09:35:38.872Z,3.67
2024-05-09T09:50:40.507Z,5.10
2024-05-09T10:05:45.018Z,3.77
2024-05-09T10:20:48.529Z,6.20
2024-05-09T10:35:50.164Z,4.97
2024-05-09T10:50:51.785Z,3.50
2024-05-09T11:05:53.465Z,3.40
2024-05-09T11:20:55.125Z,3.43
2024-05-09T11:35:56.737Z,3.20
2024-05-09T11:50:58.369Z,3.13
2024-05-09T12:06:00.134Z,3.20
2024-05-09T12:21:01.920Z,2.90
2024-05-09T12:36:03.557Z,2.70
2024-05-09T12:51:05.195Z,3.20
2024-05-09T13:06:06.822Z,4.37
2024-05-09T13:21:08.480Z,3.63
2024-05-09T13:36:10.098Z,3.53
2024-05-09T13:51:11.718Z,4.20
2024-05-09T14:06:13.420Z,3.77
2024-05-09T14:21:15.052Z,4.77
2024-05-09T14:36:16.663Z,4.00
2024-05-09T14:51:18.291Z,3.53
2024-05-09T15:06:20.135Z,3.37
2024-05-09T15:21:21.874Z,3.20
2024-05-09T15:36:23.484Z,3.47
2024-05-09T15:51:25.129Z,3.80
2024-05-09T16:06:26.784Z,3.60
2024-05-09T16:21:28.419Z,3.83
2024-05-09T16:36:30.116Z,3.97
2024-05-09T16:51:31.773Z,3.80
2024-05-09T17:06:33.421Z,3.60
2024-05-09T17:21:35.079Z,3.60
2024-05-09T17:36:36.767Z,3.23
2024-05-09T17:51:38.477Z,4.00
2024-05-09T18:06:40.159Z,4.07
2024-05-09T18:21:41.946Z,4.43
2024-05-09T18:36:43.615Z,4.80
2024-05-09T18:51:45.410Z,4.40
2024-05-09T19:06:47.173Z,4.80
2024-05-09T19:21:48.887Z,4.50
2024-05-09T19:36:50.548Z,4.00
2024-05-09T19:51:52.205Z,4.60
2024-05-09T20:06:53.933Z,4.40
2024-05-09T20:21:55.640Z,3.97
2024-05-09T20:36:57.315Z,3.83
2024-05-09T20:51:58.951Z,3.80
2024-05-09T21:07:00.683Z,4.10
2024-05-09T21:22:02.400Z,3.83
2024-05-09T21:37:04.088Z,3.90
2024-05-09T21:52:05.843Z,3.53
2024-05-09T22:07:07.539Z,3.90
2024-05-09T22:22:09.232Z,3.97
2024-05-09T22:37:11.094Z,3.70
2024-05-09T22:52:12.825Z,3.60
2024-05-09T23:07:14.550Z,3.70
2024-05-09T23:22:16.377Z,3.30
2024-05-09T23:37:18.139Z,3.33
2024-05-09T23:52:20.011Z,3.67
